sensor_id;sensor_type;location;lat;lon;timestamp;pressure;altitude;pressure_sealevel;temperature;humidity
76311;BME280;65120;59.304;18.294;2023-02-07T00:00:42;103512.69;;;-1.22;69.53
76311;BME280;65120;59.304;18.294;2023-02-07T00:03:09;103525.38;;;-1.11;70.37
76311;BME280;65120;59.304;18.294;2023-02-07T00:05:37;103524.63;;;-1.10;70.10
76311;BME280;65120;59.304;18.294;2023-02-07T00:08:05;103509.91;;;-1.13;70.28
76311;BME280;65120;59.304;18.294;2023-02-07T00:10:34;103519.50;;;-1.10;70.50
76311;BME280;65120;59.304;18.294;2023-02-07T00:13:01;103517.03;;;-1.09;70.09
76311;BME280;65120;59.304;18.294;2023-02-07T00:15:28;103517.91;;;-1.08;70.33
76311;BME280;65120;59.304;18.294;2023-02-07T00:17:55;103528.28;;;-1.07;70.25
76311;BME280;65120;59.304;18.294;2023-02-07T00:20:22;103530.97;;;-1.05;70.87
76311;BME280;65120;59.304;18.294;2023-02-07T00:22:51;103535.31;;;-1.04;70.73
76311;BME280;65120;59.304;18.294;2023-02-07T00:25:19;103531.22;;;-1.02;70.18
76311;BME280;65120;59.304;18.294;2023-02-07T00:27:46;103536.44;;;-1.01;70.74
76311;BME280;65120;59.304;18.294;2023-02-07T00:30:13;103531.44;;;-0.99;70.90
76311;BME280;65120;59.304;18.294;2023-02-07T00:32:40;103529.84;;;-0.97;70.86
76311;BME280;65120;59.304;18.294;2023-02-07T00:35:07;103527.50;;;-0.94;70.98
76311;BME280;65120;59.304;18.294;2023-02-07T00:37:35;103521.72;;;-0.92;71.06
76311;BME280;65120;59.304;18.294;2023-02-07T00:40:04;103526.06;;;-0.91;70.95
76311;BME280;65120;59.304;18.294;2023-02-07T00:42:31;103526.97;;;-0.90;71.20
76311;BME280;65120;59.304;18.294;2023-02-07T00:44:58;103528.94;;;-0.86;71.00
76311;BME280;65120;59.304;18.294;2023-02-07T00:47:25;103510.69;;;-0.91;70.83
76311;BME280;65120;59.304;18.294;2023-02-07T00:49:52;103515.59;;;-0.82;71.04
76311;BME280;65120;59.304;18.294;2023-02-07T00:52:18;103512.22;;;-0.81;71.64
76311;BME280;65120;59.304;18.294;2023-02-07T00:54:45;103521.16;;;-0.76;71.55
76311;BME280;65120;59.304;18.294;2023-02-07T00:57:14;103516.00;;;-0.76;71.53
76311;BME280;65120;59.304;18.294;2023-02-07T00:59:41;103522.38;;;-0.71;71.89
76311;BME280;65120;59.304;18.294;2023-02-07T01:02:08;103525.94;;;-0.69;71.68
76311;BME280;65120;59.304;18.294;2023-02-07T01:04:35;103503.19;;;-0.76;71.85
76311;BME280;65120;59.304;18.294;2023-02-07T01:07:02;103522.03;;;-0.63;71.91
76311;BME280;65120;59.304;18.294;2023-02-07T01:09:29;103527.38;;;-0.60;72.39
76311;BME280;65120;59.304;18.294;2023-02-07T01:11:56;103520.69;;;-0.58;71.83
76311;BME280;65120;59.304;18.294;2023-02-07T01:14:24;103536.31;;;-0.55;72.26
76311;BME280;65120;59.304;18.294;2023-02-07T01:16:52;103538.31;;;-0.51;72.27
76311;BME280;65120;59.304;18.294;2023-02-07T01:19:19;103538.53;;;-0.48;72.77
76311;BME280;65120;59.304;18.294;2023-02-07T01:21:45;103528.25;;;-0.48;71.99
76311;BME280;65120;59.304;18.294;2023-02-07T01:24:12;103524.31;;;-0.43;72.84
76311;BME280;65120;59.304;18.294;2023-02-07T01:26:39;103514.97;;;-0.42;72.44
76311;BME280;65120;59.304;18.294;2023-02-07T01:29:06;103514.50;;;-0.37;72.98
76311;BME280;65120;59.304;18.294;2023-02-07T01:31:35;103501.88;;;-0.34;72.93
76311;BME280;65120;59.304;18.294;2023-02-07T01:34:02;103483.09;;;-0.33;73.02
76311;BME280;65120;59.304;18.294;2023-02-07T01:36:29;103479.94;;;-0.29;72.86
76311;BME280;65120;59.304;18.294;2023-02-07T01:38:56;103453.84;;;-0.35;72.55
76311;BME280;65120;59.304;18.294;2023-02-07T01:41:25;103461.50;;;-0.23;72.98
76311;BME280;65120;59.304;18.294;2023-02-07T01:43:55;103464.19;;;-0.21;72.85
76311;BME280;65120;59.304;18.294;2023-02-07T01:46:22;103463.59;;;-0.17;72.59
76311;BME280;65120;59.304;18.294;2023-02-07T01:48:51;103459.38;;;-0.17;72.26
76311;BME280;65120;59.304;18.294;2023-02-07T01:51:20;103450.19;;;-0.13;73.20
76311;BME280;65120;59.304;18.294;2023-02-07T01:53:48;103452.16;;;-0.09;72.88
76311;BME280;65120;59.304;18.294;2023-02-07T01:56:17;103453.19;;;-0.07;72.46
76311;BME280;65120;59.304;18.294;2023-02-07T01:58:44;103453.38;;;-0.04;73.17
76311;BME280;65120;59.304;18.294;2023-02-07T02:01:16;103444.09;;;-0.02;72.88
76311;BME280;65120;59.304;18.294;2023-02-07T02:03:48;103441.75;;;0.01;73.00
76311;BME280;65120;59.304;18.294;2023-02-07T02:06:18;103447.88;;;0.03;72.98
76311;BME280;65120;59.304;18.294;2023-02-07T02:08:46;103457.38;;;0.04;72.98
76311;BME280;65120;59.304;18.294;2023-02-07T02:11:24;103453.31;;;0.08;72.52
76311;BME280;65120;59.304;18.294;2023-02-07T02:13:59;103457.78;;;0.10;72.33
76311;BME280;65120;59.304;18.294;2023-02-07T02:16:34;103456.22;;;0.12;72.70
76311;BME280;65120;59.304;18.294;2023-02-07T02:22:32;103456.50;;;0.17;72.47
76311;BME280;65120;59.304;18.294;2023-02-07T02:28:25;103444.75;;;0.20;72.45
76311;BME280;65120;59.304;18.294;2023-02-07T02:31:15;103447.53;;;0.24;73.17
76311;BME280;65120;59.304;18.294;2023-02-07T02:33:56;103436.56;;;0.26;73.07
76311;BME280;65120;59.304;18.294;2023-02-07T02:36:32;103437.44;;;0.27;72.62
76311;BME280;65120;59.304;18.294;2023-02-07T02:39:07;103436.78;;;0.29;72.85
76311;BME280;65120;59.304;18.294;2023-02-07T02:41:41;103434.28;;;0.31;73.07
76311;BME280;65120;59.304;18.294;2023-02-07T02:44:17;103436.16;;;0.33;73.02
76311;BME280;65120;59.304;18.294;2023-02-07T02:46:46;103424.88;;;0.31;73.08
76311;BME280;65120;59.304;18.294;2023-02-07T02:49:16;103429.53;;;0.37;73.09
76311;BME280;65120;59.304;18.294;2023-02-07T02:51:44;103433.09;;;0.39;72.79
76311;BME280;65120;59.304;18.294;2023-02-07T02:54:26;103425.50;;;0.40;73.30
76311;BME280;65120;59.304;18.294;2023-02-07T03:00:45;103434.31;;;0.44;73.06
76311;BME280;65120;59.304;18.294;2023-02-07T03:03:48;103430.16;;;0.46;72.88
76311;BME280;65120;59.304;18.294;2023-02-07T03:06:31;103438.84;;;0.48;72.81
76311;BME280;65120;59.304;18.294;2023-02-07T03:09:07;103422.53;;;0.48;72.83
76311;BME280;65120;59.304;18.294;2023-02-07T03:11:45;103431.44;;;0.53;73.25
76311;BME280;65120;59.304;18.294;2023-02-07T03:14:20;103430.75;;;0.55;72.79
76311;BME280;65120;59.304;18.294;2023-02-07T03:16:56;103423.13;;;0.57;73.05
76311;BME280;65120;59.304;18.294;2023-02-07T03:19:27;103414.72;;;0.59;73.29
76311;BME280;65120;59.304;18.294;2023-02-07T03:21:58;103415.72;;;0.61;73.38
76311;BME280;65120;59.304;18.294;2023-02-07T03:24:28;103415.84;;;0.63;73.64
76311;BME280;65120;59.304;18.294;2023-02-07T03:26:58;103402.66;;;0.58;72.99
76311;BME280;65120;59.304;18.294;2023-02-07T03:29:28;103416.03;;;0.66;73.27
76311;BME280;65120;59.304;18.294;2023-02-07T03:31:58;103417.91;;;0.69;73.52
76311;BME280;65120;59.304;18.294;2023-02-07T03:34:29;103411.97;;;0.70;73.39
76311;BME280;65120;59.304;18.294;2023-02-07T03:37:04;103417.09;;;0.70;73.25
76311;BME280;65120;59.304;18.294;2023-02-07T03:39:33;103408.78;;;0.74;72.58
76311;BME280;65120;59.304;18.294;2023-02-07T03:42:03;103396.59;;;0.71;73.32
76311;BME280;65120;59.304;18.294;2023-02-07T03:44:33;103400.19;;;0.73;72.74
76311;BME280;65120;59.304;18.294;2023-02-07T03:47:02;103403.06;;;0.78;73.43
76311;BME280;65120;59.304;18.294;2023-02-07T03:49:29;103406.63;;;0.80;72.85
76311;BME280;65120;59.304;18.294;2023-02-07T03:51:56;103401.56;;;0.81;73.27
76311;BME280;65120;59.304;18.294;2023-02-07T03:54:25;103401.69;;;0.83;73.89
76311;BME280;65120;59.304;18.294;2023-02-07T03:56:52;103401.88;;;0.86;73.30
76311;BME280;65120;59.304;18.294;2023-02-07T03:59:18;103395.03;;;0.86;73.77
76311;BME280;65120;59.304;18.294;2023-02-07T04:01:45;103392.53;;;0.88;73.74
76311;BME280;65120;59.304;18.294;2023-02-07T04:04:13;103396.03;;;0.88;73.22
76311;BME280;65120;59.304;18.294;2023-02-07T04:06:40;103384.94;;;0.89;73.95
76311;BME280;65120;59.304;18.294;2023-02-07T04:09:07;103379.88;;;0.91;73.64
76311;BME280;65120;59.304;18.294;2023-02-07T04:11:35;103375.72;;;0.93;73.36
76311;BME280;65120;59.304;18.294;2023-02-07T04:14:02;103381.84;;;0.95;72.98
76311;BME280;65120;59.304;18.294;2023-02-07T04:16:29;103377.59;;;0.96;73.29
76311;BME280;65120;59.304;18.294;2023-02-07T04:18:56;103374.31;;;0.98;73.64
76311;BME280;65120;59.304;18.294;2023-02-07T04:21:23;103369.28;;;1.00;73.52
76311;BME280;65120;59.304;18.294;2023-02-07T04:23:50;103365.03;;;1.00;73.44
76311;BME280;65120;59.304;18.294;2023-02-07T04:26:16;103364.31;;;1.03;73.49
76311;BME280;65120;59.304;18.294;2023-02-07T04:28:45;103362.63;;;1.03;73.94
76311;BME280;65120;59.304;18.294;2023-02-07T04:31:11;103364.50;;;1.06;72.86
76311;BME280;65120;59.304;18.294;2023-02-07T04:33:38;103360.25;;;1.06;73.96
76311;BME280;65120;59.304;18.294;2023-02-07T04:36:06;103359.38;;;1.06;73.65
76311;BME280;65120;59.304;18.294;2023-02-07T04:38:33;103356.09;;;1.08;73.77
76311;BME280;65120;59.304;18.294;2023-02-07T04:41:02;103353.59;;;1.10;73.38
76311;BME280;65120;59.304;18.294;2023-02-07T04:43:30;103353.72;;;1.11;73.16
76311;BME280;65120;59.304;18.294;2023-02-07T04:45:58;103345.19;;;1.12;73.23
76311;BME280;65120;59.304;18.294;2023-02-07T04:48:26;103350.31;;;1.12;73.91
76311;BME280;65120;59.304;18.294;2023-02-07T04:50:53;103341.03;;;1.15;73.49
76311;BME280;65120;59.304;18.294;2023-02-07T04:53:20;103329.91;;;1.16;73.44
76311;BME280;65120;59.304;18.294;2023-02-07T04:55:47;103333.47;;;1.18;73.74
76311;BME280;65120;59.304;18.294;2023-02-07T04:58:14;103335.25;;;1.19;73.81
76311;BME280;65120;59.304;18.294;2023-02-07T05:00:41;103328.50;;;1.21;73.19
76311;BME280;65120;59.304;18.294;2023-02-07T05:03:09;103321.59;;;1.20;73.57
76311;BME280;65120;59.304;18.294;2023-02-07T05:05:37;103316.06;;;1.13;73.78
76311;BME280;65120;59.304;18.294;2023-02-07T05:08:04;103319.97;;;1.22;73.77
76311;BME280;65120;59.304;18.294;2023-02-07T05:10:31;103332.97;;;1.23;73.83
76311;BME280;65120;59.304;18.294;2023-02-07T05:12:58;103327.00;;;1.24;73.94
76311;BME280;65120;59.304;18.294;2023-02-07T05:15:26;103325.44;;;1.26;74.25
76311;BME280;65120;59.304;18.294;2023-02-07T05:17:53;103328.06;;;1.28;73.70
76311;BME280;65120;59.304;18.294;2023-02-07T05:20:23;103323.72;;;1.27;73.78
76311;BME280;65120;59.304;18.294;2023-02-07T05:22:50;103320.34;;;1.28;73.26
76311;BME280;65120;59.304;18.294;2023-02-07T05:25:17;103306.53;;;1.26;73.74
76311;BME280;65120;59.304;18.294;2023-02-07T05:27:44;103297.69;;;1.22;73.57
76311;BME280;65120;59.304;18.294;2023-02-07T05:30:12;103308.47;;;1.30;73.44
76311;BME280;65120;59.304;18.294;2023-02-07T05:32:39;103304.19;;;1.30;73.59
76311;BME280;65120;59.304;18.294;2023-02-07T05:35:24;103301.81;;;1.33;73.46
76311;BME280;65120;59.304;18.294;2023-02-07T05:37:51;103301.91;;;1.35;73.96
76311;BME280;65120;59.304;18.294;2023-02-07T05:40:18;103295.00;;;1.34;73.65
76311;BME280;65120;59.304;18.294;2023-02-07T05:42:45;103301.22;;;1.38;73.83
76311;BME280;65120;59.304;18.294;2023-02-07T05:45:12;103293.56;;;1.39;73.74
76311;BME280;65120;59.304;18.294;2023-02-07T05:47:39;103280.44;;;1.34;73.54
76311;BME280;65120;59.304;18.294;2023-02-07T05:50:06;103285.06;;;1.40;73.39
76311;BME280;65120;59.304;18.294;2023-02-07T05:52:34;103277.41;;;1.42;73.46
76311;BME280;65120;59.304;18.294;2023-02-07T05:55:01;103279.19;;;1.43;73.38
76311;BME280;65120;59.304;18.294;2023-02-07T05:57:28;103278.38;;;1.44;73.66
76311;BME280;65120;59.304;18.294;2023-02-07T05:59:55;103287.00;;;1.44;73.65
76311;BME280;65120;59.304;18.294;2023-02-07T06:02:22;103279.28;;;1.44;74.05
76311;BME280;65120;59.304;18.294;2023-02-07T06:04:49;103282.03;;;1.47;74.11
76311;BME280;65120;59.304;18.294;2023-02-07T06:07:16;103276.69;;;1.44;74.34
76311;BME280;65120;59.304;18.294;2023-02-07T06:09:45;103283.13;;;1.51;74.12
76311;BME280;65120;59.304;18.294;2023-02-07T06:12:11;103290.03;;;1.52;74.08
76311;BME280;65120;59.304;18.294;2023-02-07T06:14:38;103281.50;;;1.53;73.81
76311;BME280;65120;59.304;18.294;2023-02-07T06:17:05;103286.75;;;1.54;74.02
76311;BME280;65120;59.304;18.294;2023-02-07T06:19:32;103289.34;;;1.54;74.02
76311;BME280;65120;59.304;18.294;2023-02-07T06:21:59;103287.72;;;1.56;73.62
76311;BME280;65120;59.304;18.294;2023-02-07T06:24:26;103295.53;;;1.58;74.18
76311;BME280;65120;59.304;18.294;2023-02-07T06:26:54;103282.56;;;1.56;73.55
76311;BME280;65120;59.304;18.294;2023-02-07T06:29:21;103282.78;;;1.60;73.33
76311;BME280;65120;59.304;18.294;2023-02-07T06:31:48;103285.41;;;1.61;74.16
76311;BME280;65120;59.304;18.294;2023-02-07T06:34:15;103280.09;;;1.58;74.04
76311;BME280;65120;59.304;18.294;2023-02-07T06:36:42;103292.34;;;1.62;73.83
76311;BME280;65120;59.304;18.294;2023-02-07T06:39:09;103292.44;;;1.64;73.41
76311;BME280;65120;59.304;18.294;2023-02-07T06:41:36;103285.53;;;1.63;73.90
76311;BME280;65120;59.304;18.294;2023-02-07T06:44:04;103283.84;;;1.63;74.42
76311;BME280;65120;59.304;18.294;2023-02-07T06:46:31;103274.22;;;1.61;74.16
76311;BME280;65120;59.304;18.294;2023-02-07T06:48:58;103290.94;;;1.67;73.50
76311;BME280;65120;59.304;18.294;2023-02-07T06:51:25;103283.28;;;1.69;73.30
76311;BME280;65120;59.304;18.294;2023-02-07T06:53:52;103276.00;;;1.62;73.26
76311;BME280;65120;59.304;18.294;2023-02-07T06:56:19;103268.97;;;1.59;73.48
76311;BME280;65120;59.304;18.294;2023-02-07T06:58:46;103287.75;;;1.71;73.62
76311;BME280;65120;59.304;18.294;2023-02-07T07:01:14;103281.78;;;1.72;73.61
76311;BME280;65120;59.304;18.294;2023-02-07T07:03:44;103263.94;;;1.61;73.29
76311;BME280;65120;59.304;18.294;2023-02-07T07:06:11;103271.72;;;1.62;73.75
76311;BME280;65120;59.304;18.294;2023-02-07T07:08:38;103287.91;;;1.74;73.29
76311;BME280;65120;59.304;18.294;2023-02-07T07:11:05;103271.19;;;1.68;73.32
76311;BME280;65120;59.304;18.294;2023-02-07T07:13:33;103272.34;;;1.73;74.02
76311;BME280;65120;59.304;18.294;2023-02-07T07:15:59;103276.91;;;1.77;73.79
76311;BME280;65120;59.304;18.294;2023-02-07T07:18:28;103270.06;;;1.77;73.48
76311;BME280;65120;59.304;18.294;2023-02-07T07:20:56;103264.44;;;1.70;73.82
76311;BME280;65120;59.304;18.294;2023-02-07T07:23:23;103277.84;;;1.79;73.33
76311;BME280;65120;59.304;18.294;2023-02-07T07:25:50;103272.81;;;1.80;73.45
76311;BME280;65120;59.304;18.294;2023-02-07T07:28:17;103267.66;;;1.80;73.31
76311;BME280;65120;59.304;18.294;2023-02-07T07:30:44;103263.38;;;1.81;73.55
76311;BME280;65120;59.304;18.294;2023-02-07T07:33:11;103268.72;;;1.84;73.91
76311;BME280;65120;59.304;18.294;2023-02-07T07:35:39;103260.53;;;1.76;73.52
76311;BME280;65120;59.304;18.294;2023-02-07T07:38:06;103265.34;;;1.85;74.21
76311;BME280;65120;59.304;18.294;2023-02-07T07:40:33;103266.31;;;1.87;73.55
76311;BME280;65120;59.304;18.294;2023-02-07T07:43:00;103261.97;;;1.86;73.43
76311;BME280;65120;59.304;18.294;2023-02-07T07:45:27;103261.25;;;1.89;73.98
76311;BME280;65120;59.304;18.294;2023-02-07T07:47:54;103265.53;;;1.88;73.31
76311;BME280;65120;59.304;18.294;2023-02-07T07:50:21;103257.88;;;1.90;73.50
76311;BME280;65120;59.304;18.294;2023-02-07T07:52:49;103257.97;;;1.91;73.94
76311;BME280;65120;59.304;18.294;2023-02-07T07:55:16;103267.47;;;1.92;73.74
76311;BME280;65120;59.304;18.294;2023-02-07T07:57:43;103262.31;;;1.92;74.03
76311;BME280;65120;59.304;18.294;2023-02-07T08:00:11;103263.19;;;1.93;73.39
76311;BME280;65120;59.304;18.294;2023-02-07T08:02:38;103262.41;;;1.94;73.34
76311;BME280;65120;59.304;18.294;2023-02-07T08:05:05;103244.91;;;1.88;73.61
76311;BME280;65120;59.304;18.294;2023-02-07T08:07:32;103259.13;;;1.96;73.51
76311;BME280;65120;59.304;18.294;2023-02-07T08:10:00;103244.53;;;1.97;74.05
76311;BME280;65120;59.304;18.294;2023-02-07T08:12:27;103219.56;;;1.81;73.84
76311;BME280;65120;59.304;18.294;2023-02-07T08:14:54;103245.50;;;1.99;73.66
76311;BME280;65120;59.304;18.294;2023-02-07T08:17:21;103246.41;;;1.99;73.90
76311;BME280;65120;59.304;18.294;2023-02-07T08:19:48;103252.50;;;2.01;73.46
76311;BME280;65120;59.304;18.294;2023-02-07T08:22:15;103250.03;;;2.03;73.94
76311;BME280;65120;59.304;18.294;2023-02-07T08:24:42;103253.38;;;2.02;73.60
76311;BME280;65120;59.304;18.294;2023-02-07T08:27:10;103259.63;;;2.06;74.30
76311;BME280;65120;59.304;18.294;2023-02-07T08:29:37;103263.97;;;2.07;73.95
76311;BME280;65120;59.304;18.294;2023-02-07T08:32:04;103272.59;;;2.07;74.11
76311;BME280;65120;59.304;18.294;2023-02-07T08:34:31;103274.47;;;2.10;73.52
76311;BME280;65120;59.304;18.294;2023-02-07T08:37:02;103272.88;;;2.12;73.51
76311;BME280;65120;59.304;18.294;2023-02-07T08:39:29;103278.63;;;2.08;73.85
76311;BME280;65120;59.304;18.294;2023-02-07T08:41:56;103285.94;;;2.15;73.59
76311;BME280;65120;59.304;18.294;2023-02-07T08:44:25;103277.38;;;2.16;73.63
76311;BME280;65120;59.304;18.294;2023-02-07T08:46:52;103279.16;;;2.17;73.73
76311;BME280;65120;59.304;18.294;2023-02-07T08:49:19;103292.13;;;2.18;74.34
76311;BME280;65120;59.304;18.294;2023-02-07T08:51:46;103279.94;;;2.16;73.90
76311;BME280;65120;59.304;18.294;2023-02-07T08:54:12;103277.53;;;2.19;73.78
76311;BME280;65120;59.304;18.294;2023-02-07T08:56:39;103273.47;;;2.22;73.72
76311;BME280;65120;59.304;18.294;2023-02-07T08:59:06;103270.06;;;2.23;73.69
76311;BME280;65120;59.304;18.294;2023-02-07T09:01:35;103265.03;;;2.25;74.17
76311;BME280;65120;59.304;18.294;2023-02-07T09:04:01;103261.63;;;2.26;74.44
76311;BME280;65120;59.304;18.294;2023-02-07T09:06:28;103262.50;;;2.27;73.82
76311;BME280;65120;59.304;18.294;2023-02-07T09:08:55;103266.06;;;2.29;73.78
76311;BME280;65120;59.304;18.294;2023-02-07T09:11:23;103260.91;;;2.29;73.91
76311;BME280;65120;59.304;18.294;2023-02-07T09:13:50;103273.97;;;2.32;74.30
76311;BME280;65120;59.304;18.294;2023-02-07T09:16:17;103277.53;;;2.34;74.07
76311;BME280;65120;59.304;18.294;2023-02-07T09:18:45;103265.53;;;2.34;73.90
76311;BME280;65120;59.304;18.294;2023-02-07T09:21:12;103261.34;;;2.36;73.93
76311;BME280;65120;59.304;18.294;2023-02-07T09:23:39;103257.06;;;2.37;74.04
76311;BME280;65120;59.304;18.294;2023-02-07T09:26:07;103261.50;;;2.39;74.21
76311;BME280;65120;59.304;18.294;2023-02-07T09:28:34;103267.56;;;2.40;73.77
76311;BME280;65120;59.304;18.294;2023-02-07T09:31:06;103265.03;;;2.41;74.25
76311;BME280;65120;59.304;18.294;2023-02-07T09:33:33;103272.00;;;2.42;74.20
76311;BME280;65120;59.304;18.294;2023-02-07T09:36:02;103261.75;;;2.44;73.79
76311;BME280;65120;59.304;18.294;2023-02-07T09:38:29;103266.19;;;2.46;74.08
76311;BME280;65120;59.304;18.294;2023-02-07T09:40:57;103273.94;;;2.46;73.85
76311;BME280;65120;59.304;18.294;2023-02-07T09:43:31;103274.97;;;2.50;74.16
76311;BME280;65120;59.304;18.294;2023-02-07T09:46:01;103270.72;;;2.51;74.18
76311;BME280;65120;59.304;18.294;2023-02-07T09:48:35;103267.34;;;2.52;74.24
76311;BME280;65120;59.304;18.294;2023-02-07T09:51:12;103278.63;;;2.54;74.25
76311;BME280;65120;59.304;18.294;2023-02-07T09:53:43;103270.91;;;2.54;74.60
76311;BME280;65120;59.304;18.294;2023-02-07T09:56:14;103274.41;;;2.56;74.32
76311;BME280;65120;59.304;18.294;2023-02-07T09:58:47;103260.75;;;2.57;74.32
76311;BME280;65120;59.304;18.294;2023-02-07T10:01:20;103262.50;;;2.58;73.97
76311;BME280;65120;59.304;18.294;2023-02-07T10:04:04;103271.22;;;2.60;74.21
76311;BME280;65120;59.304;18.294;2023-02-07T10:06:34;103271.22;;;2.60;74.21
76311;BME280;65120;59.304;18.294;2023-02-07T10:09:02;103268.69;;;2.61;73.90
76311;BME280;65120;59.304;18.294;2023-02-07T10:11:38;103272.19;;;2.62;74.33
76311;BME280;65120;59.304;18.294;2023-02-07T10:14:19;103262.81;;;2.64;74.03
76311;BME280;65120;59.304;18.294;2023-02-07T10:16:58;103263.72;;;2.64;74.12
76311;BME280;65120;59.304;18.294;2023-02-07T10:19:35;103257.66;;;2.64;73.85
76311;BME280;65120;59.304;18.294;2023-02-07T10:22:16;103271.53;;;2.66;73.71
76311;BME280;65120;59.304;18.294;2023-02-07T10:25:11;103269.94;;;2.68;74.28
76311;BME280;65120;59.304;18.294;2023-02-07T10:27:45;103277.69;;;2.68;73.76
76311;BME280;65120;59.304;18.294;2023-02-07T10:30:15;103269.94;;;2.68;74.20
76311;BME280;65120;59.304;18.294;2023-02-07T10:32:46;103272.53;;;2.68;74.29
76311;BME280;65120;59.304;18.294;2023-02-07T10:35:16;103276.88;;;2.69;73.60
76311;BME280;65120;59.304;18.294;2023-02-07T10:37:46;103268.31;;;2.70;73.77
76311;BME280;65120;59.304;18.294;2023-02-07T10:40:18;103269.22;;;2.70;73.98
76311;BME280;65120;59.304;18.294;2023-02-07T10:42:55;103271.88;;;2.72;74.12
76311;BME280;65120;59.304;18.294;2023-02-07T10:45:25;103263.16;;;2.70;74.11
76311;BME280;65120;59.304;18.294;2023-02-07T10:47:52;103264.13;;;2.72;74.08
76311;BME280;65120;59.304;18.294;2023-02-07T10:50:21;103258.97;;;2.72;73.85
76311;BME280;65120;59.304;18.294;2023-02-07T10:52:51;103251.22;;;2.72;74.31
76311;BME280;65120;59.304;18.294;2023-02-07T10:55:34;103258.16;;;2.73;74.12
76311;BME280;65120;59.304;18.294;2023-02-07T10:58:02;103249.47;;;2.71;74.10
76311;BME280;65120;59.304;18.294;2023-02-07T11:00:30;103242.34;;;2.67;73.78
76311;BME280;65120;59.304;18.294;2023-02-07T11:03:01;103250.50;;;2.75;73.94
76311;BME280;65120;59.304;18.294;2023-02-07T11:05:37;103253.09;;;2.75;73.65
76311;BME280;65120;59.304;18.294;2023-02-07T11:08:16;103249.69;;;2.76;74.21
76311;BME280;65120;59.304;18.294;2023-02-07T11:10:46;103248.81;;;2.75;74.01
76311;BME280;65120;59.304;18.294;2023-02-07T11:13:16;103248.91;;;2.77;73.84
76311;BME280;65120;59.304;18.294;2023-02-07T11:15:49;103241.22;;;2.78;73.57
76311;BME280;65120;59.304;18.294;2023-02-07T11:18:32;103253.34;;;2.79;74.41
76311;BME280;65120;59.304;18.294;2023-02-07T11:21:06;103249.06;;;2.80;74.33
76311;BME280;65120;59.304;18.294;2023-02-07T11:23:35;103257.69;;;2.80;73.89
76311;BME280;65120;59.304;18.294;2023-02-07T11:26:02;103259.44;;;2.81;74.20
76311;BME280;65120;59.304;18.294;2023-02-07T11:28:31;103252.63;;;2.82;73.97
76311;BME280;65120;59.304;18.294;2023-02-07T11:31:02;103232.34;;;2.73;73.88
76311;BME280;65120;59.304;18.294;2023-02-07T11:33:33;103238.00;;;2.82;74.25
76311;BME280;65120;59.304;18.294;2023-02-07T11:36:03;103242.38;;;2.83;74.24
76311;BME280;65120;59.304;18.294;2023-02-07T11:38:31;103241.47;;;2.83;74.44
76311;BME280;65120;59.304;18.294;2023-02-07T11:41:03;103246.69;;;2.84;74.25
76311;BME280;65120;59.304;18.294;2023-02-07T11:43:32;103232.84;;;2.82;74.37
76311;BME280;65120;59.304;18.294;2023-02-07T11:46:02;103238.19;;;2.85;73.87
76311;BME280;65120;59.304;18.294;2023-02-07T11:48:34;103234.78;;;2.86;74.19
76311;BME280;65120;59.304;18.294;2023-02-07T11:51:03;103222.53;;;2.82;74.26
76311;BME280;65120;59.304;18.294;2023-02-07T11:53:36;103237.44;;;2.88;74.32
76311;BME280;65120;59.304;18.294;2023-02-07T11:56:19;103226.06;;;2.84;74.04
76311;BME280;65120;59.304;18.294;2023-02-07T11:58:47;103236.72;;;2.90;74.25
76311;BME280;65120;59.304;18.294;2023-02-07T12:01:17;103237.50;;;2.89;74.18
76311;BME280;65120;59.304;18.294;2023-02-07T12:03:47;103222.69;;;2.85;73.94
76311;BME280;65120;59.304;18.294;2023-02-07T12:06:18;103231.63;;;2.92;74.55
76311;BME280;65120;59.304;18.294;2023-02-07T12:08:48;103225.66;;;2.93;74.48
76311;BME280;65120;59.304;18.294;2023-02-07T12:11:20;103215.31;;;2.93;74.45
76311;BME280;65120;59.304;18.294;2023-02-07T12:13:52;103207.66;;;2.95;74.26
76311;BME280;65120;59.304;18.294;2023-02-07T12:16:23;103219.75;;;2.96;73.96
76311;BME280;65120;59.304;18.294;2023-02-07T12:18:55;103213.81;;;2.97;74.00
76311;BME280;65120;59.304;18.294;2023-02-07T12:21:33;103204.19;;;2.94;74.16
76311;BME280;65120;59.304;18.294;2023-02-07T12:24:03;103209.53;;;2.97;73.94
76311;BME280;65120;59.304;18.294;2023-02-07T12:26:38;103194.91;;;2.98;74.31
76311;BME280;65120;59.304;18.294;2023-02-07T12:29:19;103198.38;;;2.98;74.37
76311;BME280;65120;59.304;18.294;2023-02-07T12:31:55;103176.53;;;2.91;74.29
76311;BME280;65120;59.304;18.294;2023-02-07T12:34:29;103183.78;;;2.99;74.02
76311;BME280;65120;59.304;18.294;2023-02-07T12:37:04;103189.84;;;2.99;74.39
76311;BME280;65120;59.304;18.294;2023-02-07T12:39:42;103185.56;;;3.00;74.16
76311;BME280;65120;59.304;18.294;2023-02-07T12:42:23;103179.56;;;3.01;73.96
76311;BME280;65120;59.304;18.294;2023-02-07T12:44:57;103163.78;;;2.95;74.29
76311;BME280;65120;59.304;18.294;2023-02-07T12:47:38;103177.88;;;3.01;73.96
76311;BME280;65120;59.304;18.294;2023-02-07T12:50:17;103183.13;;;3.03;74.15
76311;BME280;65120;59.304;18.294;2023-02-07T12:52:54;103176.84;;;2.98;74.46
76311;BME280;65120;59.304;18.294;2023-02-07T12:55:35;103166.38;;;2.95;74.13
76311;BME280;65120;59.304;18.294;2023-02-07T12:58:23;103180.56;;;3.03;74.42
76311;BME280;65120;59.304;18.294;2023-02-07T13:00:57;103177.16;;;3.04;74.04
76311;BME280;65120;59.304;18.294;2023-02-07T13:03:36;103178.94;;;3.05;74.33
76311;BME280;65120;59.304;18.294;2023-02-07T13:06:13;103185.00;;;3.05;74.65
76311;BME280;65120;59.304;18.294;2023-02-07T13:08:47;103188.44;;;3.06;74.49
76311;BME280;65120;59.304;18.294;2023-02-07T13:11:23;103180.72;;;3.06;74.30